createdAt,value
2022-12-31T00:01:27.572Z,29.33
2022-12-31T00:04:30.064Z,32.28
2022-12-31T00:10:41.631Z,31.27
2022-12-31T00:13:46.571Z,28.38
2022-12-31T00:16:49.106Z,26.75
2022-12-31T00:19:51.618Z,34.78
2022-12-31T00:22:54.143Z,31.30
2022-12-31T00:25:56.280Z,35.53
2022-12-31T00:29:00.294Z,25.60
2022-12-31T00:35:05.277Z,28.92
2022-12-31T00:38:07.396Z,33.80
2022-12-31T00:41:10.437Z,32.47
2022-12-31T00:44:12.745Z,20.77
2022-12-31T00:47:15.347Z,31.73
2022-12-31T00:50:17.612Z,24.00
2022-12-31T00:53:21.105Z,25.50
2022-12-31T00:56:26.386Z,30.48
2022-12-31T00:59:28.820Z,31.65
2022-12-31T01:02:31.164Z,26.05
2022-12-31T01:05:35.311Z,30.67
2022-12-31T01:11:40.668Z,25.65
2022-12-31T01:14:42.960Z,27.42
2022-12-31T01:17:45.416Z,31.15
2022-12-31T01:20:47.546Z,27.77
2022-12-31T01:23:50.344Z,27.73
2022-12-31T01:26:52.569Z,30.27
2022-12-31T01:29:55.045Z,25.30
2022-12-31T01:32:57.593Z,32.60
2022-12-31T01:36:05.832Z,27.80
2022-12-31T01:39:09.423Z,28.02
2022-12-31T01:42:12.365Z,31.15
2022-12-31T01:45:14.596Z,27.70
2022-12-31T01:48:22.272Z,30.42
2022-12-31T01:51:27.328Z,31.92
2022-12-31T01:54:34.951Z,33.60
2022-12-31T01:57:38.129Z,29.83
2022-12-31T02:00:40.787Z,34.92
2022-12-31T02:03:43.463Z,37.63
2022-12-31T02:07:01.853Z,31.45
2022-12-31T02:10:05.037Z,35.10
2022-12-31T02:13:07.628Z,38.33
2022-12-31T02:16:40.856Z,42.33
2022-12-31T02:20:15.807Z,28.45
2022-12-31T02:23:32.655Z,29.83
2022-12-31T02:26:59.817Z,29.10
2022-12-31T02:30:08.601Z,31.98
2022-12-31T02:33:22.192Z,28.45
2022-12-31T02:36:29.909Z,37.67
2022-12-31T02:39:34.032Z,30.75
2022-12-31T02:42:36.880Z,30.05
2022-12-31T02:45:47.463Z,32.08
2022-12-31T02:49:00.039Z,33.40
2022-12-31T02:52:34.411Z,31.83
2022-12-31T02:55:50.633Z,27.98
2022-12-31T02:59:18.020Z,32.33
2022-12-31T03:02:23.053Z,28.90
2022-12-31T03:05:29.457Z,31.73
2022-12-31T03:08:32.094Z,32.75
2022-12-31T03:11:52.958Z,29.40
2022-12-31T03:14:55.528Z,36.00
2022-12-31T03:17:59.953Z,27.48
2022-12-31T03:21:20.865Z,31.20
2022-12-31T03:24:42.269Z,29.05
2022-12-31T03:27:45.872Z,26.87
2022-12-31T03:30:51.635Z,28.55
2022-12-31T03:33:54.234Z,28.20
2022-12-31T03:36:56.405Z,31.67
2022-12-31T03:40:20.020Z,33.58
2022-12-31T03:43:22.486Z,36.80
2022-12-31T03:46:24.997Z,27.90
2022-12-31T03:49:27.139Z,39.33
2022-12-31T03:52:29.688Z,31.30
2022-12-31T03:55:32.070Z,30.80
2022-12-31T03:58:34.789Z,32.27
2022-12-31T04:01:37.100Z,37.53
2022-12-31T04:04:39.676Z,35.23
2022-12-31T04:07:42.101Z,34.17
2022-12-31T04:10:44.625Z,32.13
2022-12-31T04:13:47.328Z,31.97
2022-12-31T04:16:50.011Z,37.45
2022-12-31T04:19:52.360Z,34.58
2022-12-31T04:22:54.863Z,32.80
2022-12-31T04:25:57.132Z,37.63
2022-12-31T04:28:59.642Z,39.17
2022-12-31T04:32:02.161Z,33.95
2022-12-31T04:35:05.205Z,34.93
2022-12-31T04:38:07.381Z,33.37
2022-12-31T04:41:19.764Z,32.90
2022-12-31T04:44:22.167Z,30.35
2022-12-31T04:47:24.626Z,31.45
2022-12-31T04:50:26.815Z,36.70
2022-12-31T04:53:29.489Z,31.87
2022-12-31T04:56:32.357Z,34.22
2022-12-31T04:59:34.801Z,32.80
2022-12-31T05:02:37.512Z,37.10
2022-12-31T05:05:42.792Z,34.03
2022-12-31T05:08:45.508Z,38.55
2022-12-31T05:11:48.001Z,27.37
2022-12-31T05:14:51.491Z,37.00
2022-12-31T05:17:53.999Z,36.38
2022-12-31T05:20:56.413Z,37.15
2022-12-31T05:23:58.919Z,38.38
2022-12-31T05:27:01.180Z,33.75
2022-12-31T05:30:05.498Z,33.58
2022-12-31T05:33:07.759Z,30.95
2022-12-31T05:36:10.154Z,43.22
2022-12-31T05:39:12.464Z,40.00
2022-12-31T05:42:15.014Z,42.65
2022-12-31T05:45:18.484Z,39.88
2022-12-31T05:51:23.385Z,39.70
2022-12-31T05:54:25.916Z,47.38
2022-12-31T05:57:28.129Z,42.20
2022-12-31T06:00:30.699Z,41.37
2022-12-31T06:03:33.249Z,42.38
2022-12-31T06:06:35.761Z,47.88
2022-12-31T06:09:38.537Z,38.45
2022-12-31T06:12:40.727Z,34.50
2022-12-31T06:15:43.249Z,38.88
2022-12-31T06:18:47.687Z,39.50
2022-12-31T06:21:50.351Z,40.75
2022-12-31T06:24:52.553Z,40.60
2022-12-31T06:27:55.160Z,45.38
2022-12-31T06:31:04.470Z,42.30
2022-12-31T06:34:07.011Z,43.47
2022-12-31T06:37:09.236Z,39.60
2022-12-31T06:40:12.580Z,37.42
2022-12-31T06:43:14.752Z,48.45
2022-12-31T06:46:18.358Z,41.00
2022-12-31T06:49:20.711Z,36.88
2022-12-31T06:52:23.225Z,42.67
2022-12-31T06:55:25.852Z,40.88
2022-12-31T06:58:28.770Z,43.55
2022-12-31T07:01:50.428Z,34.33
2022-12-31T07:05:08.649Z,42.55
2022-12-31T07:08:52.329Z,41.30
2022-12-31T07:12:04.183Z,45.75
2022-12-31T07:15:51.162Z,36.22
2022-12-31T07:19:12.229Z,40.47
2022-12-31T07:22:16.693Z,41.65
2022-12-31T07:25:19.616Z,40.63
2022-12-31T07:28:30.934Z,39.58
2022-12-31T07:31:49.353Z,41.00
2022-12-31T07:35:08.303Z,31.30
2022-12-31T07:38:28.380Z,34.58
2022-12-31T07:41:48.562Z,38.03
2022-12-31T07:45:01.227Z,37.85
2022-12-31T07:48:03.883Z,40.20
2022-12-31T07:51:06.823Z,37.60
2022-12-31T07:54:13.886Z,36.05
2022-12-31T07:57:19.464Z,35.72
2022-12-31T08:00:22.068Z,39.47
2022-12-31T08:03:53.993Z,43.15
2022-12-31T08:07:24.136Z,35.38
2022-12-31T08:10:42.825Z,33.95
2022-12-31T08:13:45.775Z,44.58
2022-12-31T08:16:49.097Z,43.03
2022-12-31T08:19:51.635Z,32.55
2022-12-31T08:23:09.857Z,41.08
2022-12-31T08:26:19.226Z,43.30
2022-12-31T08:30:01.525Z,40.90
2022-12-31T08:33:12.666Z,44.55
2022-12-31T08:36:55.475Z,41.40
2022-12-31T08:40:19.339Z,41.92
2022-12-31T08:46:44.925Z,36.40
2022-12-31T08:49:47.651Z,37.05
2022-12-31T08:52:50.171Z,49.00
2022-12-31T08:56:00.573Z,40.10
2022-12-31T08:59:44.015Z,35.10
2022-12-31T09:02:55.630Z,36.87
2022-12-31T09:06:27.049Z,38.70
2022-12-31T09:09:38.741Z,42.85
2022-12-31T09:12:59.126Z,40.25
2022-12-31T09:16:01.532Z,37.58
2022-12-31T09:19:04.126Z,35.90
2022-12-31T09:22:06.765Z,40.20
2022-12-31T09:25:21.387Z,38.55
2022-12-31T09:28:56.280Z,41.13
2022-12-31T09:32:17.398Z,42.47
2022-12-31T09:35:25.690Z,42.95
2022-12-31T09:38:40.177Z,40.75
2022-12-31T09:41:48.738Z,42.40
2022-12-31T09:45:09.441Z,40.12
2022-12-31T09:49:03.859Z,51.20
2022-12-31T09:52:16.582Z,40.70
2022-12-31T09:55:21.762Z,50.83
2022-12-31T09:58:52.267Z,40.50
2022-12-31T10:02:12.923Z,46.00
2022-12-31T10:05:21.628Z,39.88
2022-12-31T10:08:48.029Z,48.28
2022-12-31T10:12:12.621Z,45.53
2022-12-31T10:15:52.708Z,36.88
2022-12-31T10:19:47.347Z,33.05
2022-12-31T10:23:11.002Z,47.70
2022-12-31T10:26:25.675Z,39.60
2022-12-31T10:29:46.595Z,45.30
2022-12-31T10:32:58.799Z,45.95
2022-12-31T10:36:09.879Z,45.10
2022-12-31T10:39:24.601Z,39.83
2022-12-31T10:42:45.576Z,41.72
2022-12-31T10:46:03.297Z,43.35
2022-12-31T10:49:24.043Z,43.13
2022-12-31T10:52:42.355Z,42.35
2022-12-31T10:56:02.973Z,47.25
2022-12-31T10:59:29.978Z,48.33
2022-12-31T11:03:09.605Z,39.78
2022-12-31T11:06:42.893Z,39.42
2022-12-31T11:10:20.295Z,48.78
2022-12-31T11:13:50.995Z,47.90
2022-12-31T11:17:11.958Z,50.00
2022-12-31T11:20:33.340Z,44.55
2022-12-31T11:23:39.481Z,46.50
2022-12-31T11:26:47.645Z,44.90
2022-12-31T11:30:00.029Z,35.40
2022-12-31T11:33:25.508Z,36.83
2022-12-31T11:36:52.933Z,36.33
2022-12-31T11:40:20.273Z,40.85
2022-12-31T11:43:30.708Z,43.13
2022-12-31T11:47:08.575Z,38.20
2022-12-31T11:50:19.886Z,40.15
2022-12-31T11:53:45.595Z,37.17
2022-12-31T11:57:13.323Z,42.85
2022-12-31T12:00:19.002Z,40.80
2022-12-31T12:03:23.072Z,45.97
2022-12-31T12:09:34.427Z,42.30
2022-12-31T12:12:41.425Z,46.90
2022-12-31T12:15:51.494Z,47.83
2022-12-31T12:19:16.537Z,45.95
2022-12-31T12:22:25.394Z,44.17
2022-12-31T12:25:38.135Z,41.17
2022-12-31T12:28:45.647Z,58.37
2022-12-31T12:31:58.670Z,51.00
2022-12-31T12:35:01.257Z,46.67
2022-12-31T12:38:06.810Z,50.67
2022-12-31T12:41:21.291Z,38.88
2022-12-31T12:44:23.482Z,47.13
2022-12-31T12:47:26.276Z,47.67
2022-12-31T12:50:59.305Z,46.37
2022-12-31T12:54:23.256Z,46.37
2022-12-31T12:58:00.653Z,43.70
2022-12-31T13:01:09.257Z,45.38
2022-12-31T13:04:35.057Z,43.72
2022-12-31T13:07:54.209Z,38.92
2022-12-31T13:11:26.430Z,48.67
2022-12-31T13:15:05.910Z,45.38
2022-12-31T13:18:26.551Z,51.75
2022-12-31T13:21:28.960Z,47.83
2022-12-31T13:24:47.059Z,42.60
2022-12-31T13:27:52.369Z,39.45
2022-12-31T13:31:06.535Z,43.00
2022-12-31T13:34:17.151Z,41.50
2022-12-31T13:37:36.676Z,36.25
2022-12-31T13:40:44.966Z,44.22
2022-12-31T13:43:56.592Z,39.13
2022-12-31T13:47:08.676Z,40.20
2022-12-31T13:50:29.145Z,45.55
2022-12-31T13:54:05.771Z,44.53
2022-12-31T13:57:33.745Z,37.30
2022-12-31T14:00:41.024Z,42.45
2022-12-31T14:03:56.754Z,38.15
2022-12-31T14:07:12.021Z,39.97
2022-12-31T14:10:16.211Z,42.00
2022-12-31T14:13:47.246Z,35.35
2022-12-31T14:17:00.644Z,38.97
2022-12-31T14:20:28.328Z,36.20
2022-12-31T14:23:56.531Z,34.80
2022-12-31T14:27:02.508Z,37.30
2022-12-31T14:30:09.828Z,42.17
2022-12-31T14:33:44.345Z,40.15
2022-12-31T14:37:07.915Z,36.65
2022-12-31T14:40:34.718Z,43.47
2022-12-31T14:43:47.792Z,38.72
2022-12-31T14:47:02.341Z,40.50
2022-12-31T14:50:15.797Z,42.10
2022-12-31T14:53:24.542Z,34.00
2022-12-31T14:56:31.520Z,36.30
2022-12-31T14:59:40.108Z,37.90
2022-12-31T15:02:51.118Z,39.22
2022-12-31T15:06:11.223Z,35.75
2022-12-31T15:09:33.953Z,38.47
2022-12-31T15:12:58.031Z,36.35
2022-12-31T15:16:06.434Z,39.17
2022-12-31T15:19:51.740Z,37.15
2022-12-31T15:22:54.810Z,35.55
2022-12-31T15:26:02.092Z,35.72
2022-12-31T15:29:07.949Z,30.45
2022-12-31T15:32:24.178Z,33.35
2022-12-31T15:35:31.587Z,31.35
2022-12-31T15:38:38.110Z,32.55
2022-12-31T15:42:10.250Z,32.30
2022-12-31T15:45:11.798Z,30.75
2022-12-31T15:48:36.824Z,32.08
2022-12-31T15:51:51.915Z,28.38
2022-12-31T15:54:57.294Z,34.58
2022-12-31T15:58:05.015Z,33.25
2022-12-31T16:01:21.918Z,29.40
2022-12-31T16:04:34.719Z,31.35
2022-12-31T16:07:38.636Z,33.58
2022-12-31T16:10:44.119Z,28.87
2022-12-31T16:13:53.325Z,28.27
2022-12-31T16:16:58.166Z,33.90
2022-12-31T16:20:02.406Z,27.58
2022-12-31T16:23:20.281Z,33.25
2022-12-31T16:26:43.459Z,31.50
2022-12-31T16:29:55.577Z,32.17
2022-12-31T16:33:01.574Z,33.20
2022-12-31T16:36:05.185Z,32.10
2022-12-31T16:39:24.433Z,34.72
2022-12-31T16:42:28.863Z,30.02
2022-12-31T16:45:36.600Z,32.90
2022-12-31T16:48:39.361Z,29.48
2022-12-31T16:51:42.015Z,26.35
2022-12-31T16:54:47.635Z,28.75
2022-12-31T16:57:57.966Z,35.25
2022-12-31T17:01:14.675Z,30.12
2022-12-31T17:04:20.296Z,34.25
2022-12-31T17:07:31.967Z,40.78
2022-12-31T17:10:36.171Z,28.92
2022-12-31T17:13:38.761Z,32.67
2022-12-31T17:17:03.057Z,31.10
2022-12-31T17:20:11.330Z,33.17
2022-12-31T17:23:23.298Z,37.83
2022-12-31T17:26:28.643Z,37.95
2022-12-31T17:29:31.189Z,37.60
2022-12-31T17:32:37.188Z,33.70
2022-12-31T17:35:42.509Z,31.58
2022-12-31T17:38:45.076Z,35.70
2022-12-31T17:41:49.443Z,30.77
2022-12-31T17:44:56.361Z,35.50
2022-12-31T17:47:59.793Z,36.63
2022-12-31T17:54:17.384Z,33.40
2022-12-31T17:57:26.682Z,37.80
2022-12-31T18:00:29.205Z,44.35
2022-12-31T18:03:31.925Z,44.40
2022-12-31T18:06:34.072Z,43.00
2022-12-31T18:09:36.515Z,37.65
2022-12-31T18:12:39.180Z,43.03
2022-12-31T18:15:41.725Z,38.75
2022-12-31T18:18:45.364Z,40.63
2022-12-31T18:21:48.064Z,40.80
2022-12-31T18:24:54.251Z,41.70
2022-12-31T18:27:56.745Z,41.72
2022-12-31T18:30:59.037Z,38.55
2022-12-31T18:34:01.559Z,39.70
2022-12-31T18:37:14.007Z,40.75
2022-12-31T18:40:20.441Z,41.58
2022-12-31T18:43:23.396Z,47.30
2022-12-31T18:46:26.975Z,44.35
2022-12-31T18:49:29.178Z,51.40
2022-12-31T18:52:31.661Z,43.22
2022-12-31T18:55:44.240Z,46.15
2022-12-31T18:58:47.471Z,44.33
2022-12-31T19:01:49.797Z,49.08
2022-12-31T19:04:52.409Z,48.03
2022-12-31T19:07:55.061Z,41.15
2022-12-31T19:10:57.589Z,52.15
2022-12-31T19:13:59.769Z,50.90
2022-12-31T19:20:04.459Z,46.22
2022-12-31T19:26:18.934Z,48.35
2022-12-31T19:29:26.825Z,55.33
2022-12-31T19:32:29.219Z,46.47
2022-12-31T19:35:31.670Z,50.63
2022-12-31T19:38:34.234Z,52.22
2022-12-31T19:41:36.688Z,48.83
2022-12-31T19:44:38.886Z,46.05
2022-12-31T19:47:41.555Z,51.67
2022-12-31T19:50:49.783Z,48.92
2022-12-31T19:53:52.343Z,52.55
2022-12-31T19:56:54.496Z,54.10
2022-12-31T19:59:56.992Z,68.05
2022-12-31T20:02:59.472Z,66.80
2022-12-31T20:06:08.106Z,58.60
2022-12-31T20:09:11.541Z,56.53
2022-12-31T20:12:14.168Z,53.15
2022-12-31T20:15:16.428Z,61.70
2022-12-31T20:18:21.170Z,61.25
2022-12-31T20:21:28.390Z,57.15
2022-12-31T20:24:30.918Z,66.50
2022-12-31T20:27:33.715Z,63.38
2022-12-31T20:30:38.724Z,57.65
2022-12-31T20:33:41.740Z,66.25
2022-12-31T20:36:44.496Z,64.95
2022-12-31T20:39:46.765Z,72.57
2022-12-31T20:42:49.203Z,63.78
2022-12-31T20:45:51.482Z,66.40
2022-12-31T20:48:59.379Z,60.15
2022-12-31T20:52:03.903Z,72.95
2022-12-31T20:55:06.832Z,74.32
2022-12-31T20:58:09.042Z,71.05
2022-12-31T21:01:12.702Z,68.75
2022-12-31T21:04:15.113Z,64.80
2022-12-31T21:07:17.743Z,74.07
2022-12-31T21:10:20.414Z,72.70
2022-12-31T21:13:23.200Z,78.28
2022-12-31T21:16:26.381Z,69.80
2022-12-31T21:19:28.919Z,69.18
2022-12-31T21:22:33.778Z,70.10
2022-12-31T21:25:36.332Z,77.53
2022-12-31T21:28:38.912Z,77.20
2022-12-31T21:31:41.477Z,71.47
2022-12-31T21:34:43.645Z,77.20
2022-12-31T21:37:58.196Z,77.50
2022-12-31T21:41:04.109Z,69.87
2022-12-31T21:44:06.609Z,86.22
2022-12-31T21:47:37.451Z,84.72
2022-12-31T21:50:42.188Z,85.40
2022-12-31T21:53:44.388Z,98.15
2022-12-31T21:56:46.880Z,94.45
2022-12-31T22:00:40.308Z,91.90
2022-12-31T22:03:31.693Z,77.95
2022-12-31T22:06:36.436Z,76.60
2022-12-31T22:09:38.889Z,79.10
2022-12-31T22:12:41.135Z,77.78
2022-12-31T22:15:49.085Z,74.65
2022-12-31T22:18:51.355Z,84.05
2022-12-31T22:21:53.882Z,79.65
2022-12-31T22:24:56.333Z,80.32
2022-12-31T22:28:36.075Z,77.80
2022-12-31T22:31:24.524Z,130.45
2022-12-31T22:34:27.377Z,95.78
2022-12-31T22:37:56.367Z,104.72
2022-12-31T22:40:52.064Z,86.85
2022-12-31T22:44:02.971Z,83.03
2022-12-31T22:47:06.423Z,77.30
2022-12-31T22:50:08.850Z,77.47
2022-12-31T22:53:11.365Z,79.62
2022-12-31T22:56:16.160Z,83.10
2022-12-31T22:59:18.712Z,90.03
2022-12-31T23:02:21.343Z,79.05
2022-12-31T23:05:23.876Z,73.35
2022-12-31T23:08:26.374Z,72.22
2022-12-31T23:11:29.545Z,73.35
2022-12-31T23:14:50.299Z,79.72
2022-12-31T23:18:11.111Z,73.72
2022-12-31T23:21:32.364Z,71.65
2022-12-31T23:24:34.987Z,83.28
2022-12-31T23:27:37.284Z,75.78
2022-12-31T23:30:40.691Z,79.22
2022-12-31T23:33:42.885Z,80.12
2022-12-31T23:36:45.553Z,76.12
2022-12-31T23:39:47.788Z,90.80
2022-12-31T23:42:50.649Z,83.80
2022-12-31T23:45:53.356Z,87.20
2022-12-31T23:48:55.867Z,88.82
2022-12-31T23:51:58.107Z,95.15
2022-12-31T23:55:00.613Z,83.20
2022-12-31T23:58:02.827Z,83.70
